Time;durP1;ratioP1;P1;durP2;ratioP2;P2;SDS_P1;SDS_P2;PMS_P1;PMS_P2;Temp;Humidity;BMP_temperature;BMP_pressure;BME280_temperature;BME280_humidity;BME280_pressure;Samples;Min_cycle;Max_cycle;Signal;HPM_P1;HPM_P2
2021/07/27 00:02:00;;;;;;;7.00;2.22;;;;;;;14.84;100.00;99172.97;5049993;28;20056;-74
2021/07/27 00:05:04;;;;;;;5.28;1.98;;;;;;;14.84;100.00;99167.38;5049801;28;20432;-74
2021/07/27 00:08:07;;;;;;;5.25;1.80;;;;;;;14.87;100.00;99173.97;5049541;28;20052;-74
2021/07/27 00:11:11;;;;;;;5.93;1.90;;;;;;;14.89;100.00;99168.59;5049295;28;20052;-74
2021/07/27 00:14:15;;;;;;;8.30;2.08;;;;;;;14.87;100.00;99163.53;5049389;28;20056;-74
2021/07/27 00:17:18;;;;;;;8.40;2.25;;;;;;;14.80;100.00;99161.28;5049355;28;20052;-74
2021/07/27 00:20:22;;;;;;;6.32;2.40;;;;;;;14.81;100.00;99164.84;5052026;28;20052;-74
2021/07/27 00:23:25;;;;;;;8.27;1.63;;;;;;;14.80;100.00;99172.50;5052629;28;20064;-74
2021/07/27 00:26:28;;;;;;;8.93;2.20;;;;;;;14.81;100.00;99171.19;5052827;28;20055;-74
2021/07/27 00:29:34;;;;;;;5.10;2.00;;;;;;;14.78;100.00;99169.47;5052752;28;20060;-74
2021/07/27 00:32:39;;;;;;;6.30;2.30;;;;;;;14.78;100.00;99168.69;5052605;28;20080;-75
2021/07/27 00:35:44;;;;;;;8.07;2.17;;;;;;;14.77;100.00;99173.53;5052970;28;20477;-74
2021/07/27 00:38:48;;;;;;;4.72;1.67;;;;;;;14.76;100.00;99183.25;5052989;28;20052;-74
2021/07/27 00:41:51;;;;;;;8.60;2.42;;;;;;;14.77;100.00;99179.13;5052862;28;20409;-75
2021/07/27 00:44:54;;;;;;;9.32;2.72;;;;;;;14.74;100.00;99177.38;5052881;28;20516;-75
2021/07/27 00:47:57;;;;;;;8.38;2.80;;;;;;;14.75;100.00;99186.56;5052805;28;20512;-75
2021/07/27 00:51:01;;;;;;;6.90;2.63;;;;;;;14.73;100.00;99184.25;5052797;28;20413;-75
2021/07/27 00:54:06;;;;;;;8.45;2.20;;;;;;;14.71;100.00;99188.88;5052731;28;20052;-76
2021/07/27 00:57:10;;;;;;;10.60;3.38;;;;;;;14.66;100.00;99190.41;5052619;28;20052;-75
2021/07/27 01:00:14;;;;;;;10.25;2.47;;;;;;;14.60;100.00;99180.53;5053328;28;20048;-77
2021/07/27 01:03:17;;;;;;;8.63;3.33;;;;;;;14.52;100.00;99183.13;5052607;28;20124;-78
2021/07/27 01:06:21;;;;;;;5.38;2.10;;;;;;;14.42;100.00;99184.72;5055549;28;20056;-77
2021/07/27 01:09:25;;;;;;;7.05;2.33;;;;;;;14.34;100.00;99186.53;5059799;28;20056;-79
2021/07/27 01:12:29;;;;;;;9.90;2.72;;;;;;;14.24;100.00;99182.50;5058326;28;20057;-78
2021/07/27 01:15:33;;;;;;;11.70;3.55;;;;;;;14.19;100.00;99191.69;5060832;28;20060;-78
2021/07/27 01:18:45;;;;;;;11.55;2.83;;;;;;;14.12;100.00;99192.25;5069352;28;20036;-83
2021/07/27 01:42:11;;;;;;;5.97;2.50;;;;;;;13.79;100.00;99187.53;5052638;28;20592;-77
2021/07/27 01:45:17;;;;;;;6.28;2.92;;;;;;;13.80;100.00;99172.25;5052249;28;20485;-79
2021/07/27 01:48:26;;;;;;;6.15;2.90;;;;;;;13.88;100.00;99175.28;5051542;28;20501;-78
2021/07/27 01:51:31;;;;;;;9.43;3.47;;;;;;;13.86;100.00;99172.25;5051978;28;20052;-78
2021/07/27 01:54:41;;;;;;;9.48;2.80;;;;;;;13.88;100.00;99173.22;5051142;28;20055;-78
2021/07/27 01:57:46;;;;;;;10.23;2.63;;;;;;;13.93;100.00;99163.28;5052368;28;20064;-78
2021/07/27 02:00:50;;;;;;;10.38;3.95;;;;;;;13.97;100.00;99163.81;5052140;28;20060;-78
2021/07/27 02:03:55;;;;;;;11.43;3.03;;;;;;;14.04;100.00;99168.84;5052190;28;20047;-78
2021/07/27 02:06:59;;;;;;;7.82;3.75;;;;;;;14.10;100.00;99161.16;5052144;28;20055;-78
2021/07/27 02:10:06;;;;;;;9.80;3.00;;;;;;;14.13;100.00;99154.56;5051915;28;20055;-78
2021/07/27 02:13:24;;;;;;;13.05;3.22;;;;;;;14.17;100.00;99155.03;5050858;28;20071;-78
2021/07/27 02:16:27;;;;;;;16.83;3.67;;;;;;;14.21;100.00;99142.28;5051306;28;20071;-77
2021/07/27 02:19:33;;;;;;;10.13;3.83;;;;;;;14.24;100.00;99143.28;5051210;28;20060;-77
2021/07/27 02:22:37;;;;;;;9.63;2.85;;;;;;;14.24;100.00;99132.09;5051576;28;20083;-77
2021/07/27 02:25:40;;;;;;;9.02;3.05;;;;;;;14.26;100.00;99135.13;5051482;28;20116;-77
2021/07/27 02:28:44;;;;;;;10.02;4.45;;;;;;;14.27;100.00;99136.66;5051635;28;20071;-77
2021/07/27 02:31:47;;;;;;;16.52;4.53;;;;;;;14.27;100.00;99136.66;5051605;28;20064;-79
2021/07/27 02:34:51;;;;;;;17.45;4.47;;;;;;;14.32;100.00;99138.69;5051970;28;20120;-77
2021/07/27 02:37:54;;;;;;;16.88;3.05;;;;;;;14.30;100.00;99130.03;5051758;28;20057;-77
2021/07/27 02:40:58;;;;;;;17.05;5.43;;;;;;;14.28;100.00;99122.13;5051681;28;20052;-77
2021/07/27 02:44:02;;;;;;;13.15;4.55;;;;;;;14.31;100.00;99120.38;5051279;28;20095;-77
2021/07/27 02:47:06;;;;;;;19.17;4.18;;;;;;;14.33;100.00;99112.22;5051542;28;20056;-77
2021/07/27 02:50:10;;;;;;;14.55;3.15;;;;;;;14.41;100.00;99132.78;5051428;28;20055;-77
2021/07/27 02:53:14;;;;;;;12.85;3.30;;;;;;;14.46;100.00;99126.38;5050988;28;20055;-77
2021/07/27 02:56:20;;;;;;;12.95;3.65;;;;;;;14.47;100.00;99136.28;5051129;28;20072;-77
2021/07/27 02:59:23;;;;;;;14.32;3.97;;;;;;;14.49;100.00;99130.94;5051008;28;20056;-77
2021/07/27 03:02:31;;;;;;;16.42;4.50;;;;;;;14.51;100.00;99127.63;5049883;28;20051;-77
2021/07/27 03:05:35;;;;;;;8.48;3.15;;;;;;;14.52;100.00;99127.09;5038882;28;20064;-78
2021/07/27 03:12:04;;;;;;;9.68;2.45;;;;;;;14.50;100.00;99121.25;5050980;28;20071;-78
2021/07/27 03:15:07;;;;;;;11.73;3.53;;;;;;;14.55;100.00;99123.25;5039590;28;20052;-78
2021/07/27 03:18:11;;;;;;;12.27;4.05;;;;;;;14.60;100.00;99136.47;5044603;28;20689;-78
2021/07/27 03:21:22;;;;;;;15.85;3.38;;;;;;;14.66;100.00;99128.03;5051756;28;20055;-78
2021/07/27 03:24:25;;;;;;;13.68;3.58;;;;;;;14.71;100.00;99125.16;5053848;28;20056;-78
2021/07/27 03:27:28;;;;;;;17.80;5.40;;;;;;;14.75;100.00;99124.91;5049957;28;20052;-77
2021/07/27 03:30:32;;;;;;;14.88;4.22;;;;;;;14.80;100.00;99130.44;5050413;28;20052;-77
2021/07/27 03:33:35;;;;;;;12.70;3.65;;;;;;;14.84;100.00;99127.34;5050857;28;20060;-77
2021/07/27 03:36:38;;;;;;;9.05;3.47;;;;;;;14.86;100.00;99141.59;5050527;28;20056;-77
2021/07/27 03:39:42;;;;;;;13.52;3.97;;;;;;;14.86;100.00;99131.16;5050703;28;20056;-77
2021/07/27 03:42:46;;;;;;;14.05;4.05;;;;;;;14.87;100.00;99127.09;5050664;28;20047;-77
2021/07/27 03:45:49;;;;;;;14.20;4.35;;;;;;;14.91;100.00;99127.56;5050748;28;20055;-80
2021/07/27 03:48:52;;;;;;;11.88;3.90;;;;;;;14.91;100.00;99124.00;5050153;28;20508;-78
2021/07/27 03:52:00;;;;;;;7.72;2.60;;;;;;;14.89;100.00;99120.94;5050652;28;20056;-77
2021/07/27 03:55:05;;;;;;;8.93;3.42;;;;;;;14.88;100.00;99120.19;5053238;28;20055;-78
2021/07/27 03:58:09;;;;;;;16.00;4.85;;;;;;;14.87;100.00;99121.47;5054463;28;20060;-78
2021/07/27 04:01:13;;;;;;;22.38;5.53;;;;;;;14.85;100.00;99106.47;5054376;28;20677;-78
2021/07/27 04:04:19;;;;;;;17.38;5.28;;;;;;;14.84;100.00;99111.31;5054452;28;20059;-77
2021/07/27 04:07:23;;;;;;;11.50;3.00;;;;;;;14.83;100.00;99115.41;5054095;28;20056;-77
2021/07/27 04:10:26;;;;;;;16.30;4.03;;;;;;;14.84;100.00;99121.75;5054020;28;20052;-78
2021/07/27 04:13:32;;;;;;;10.52;5.20;;;;;;;14.83;100.00;99115.41;5053940;28;20532;-77
2021/07/27 04:16:40;;;;;;;19.50;4.70;;;;;;;14.83;100.00;99115.41;5053958;28;20095;-77
2021/07/27 04:19:44;;;;;;;20.35;5.20;;;;;;;14.80;100.00;99126.88;5034284;28;20052;-77
2021/07/27 04:22:50;;;;;;;16.48;4.55;;;;;;;14.84;100.00;99122.50;5034184;28;20409;-77
2021/07/27 04:25:53;;;;;;;20.95;4.90;;;;;;;14.85;100.00;99126.84;5034105;28;20052;-78
2021/07/27 04:28:57;;;;;;;11.57;3.70;;;;;;;14.84;100.00;99121.75;5033951;28;20068;-77
2021/07/27 04:32:00;;;;;;;15.70;3.78;;;;;;;14.82;100.00;99116.66;5033967;28;20052;-77
2021/07/27 04:35:07;;;;;;;27.50;6.25;;;;;;;14.82;100.00;99116.66;5039750;28;20053;-77
2021/07/27 04:38:11;;;;;;;19.33;5.18;;;;;;;14.84;100.00;99111.31;5048484;28;20056;-77
2021/07/27 04:41:14;;;;;;;21.15;5.20;;;;;;;14.84;100.00;99122.50;5053926;28;20056;-77
2021/07/27 04:44:17;;;;;;;30.10;5.70;;;;;;;14.84;100.00;99116.91;5045280;28;20052;-77
2021/07/27 04:47:24;;;;;;;25.45;4.90;;;;;;;14.81;100.00;99106.72;5048463;28;20052;-77
2021/07/27 04:50:28;;;;;;;23.77;4.63;;;;;;;14.83;100.00;99115.41;5033224;28;20449;-77
2021/07/27 04:53:35;;;;;;;28.85;6.82;;;;;;;14.83;100.00;99109.03;5033331;28;20056;-77
2021/07/27 04:56:39;;;;;;;13.80;4.85;;;;;;;14.85;100.00;99112.06;5033343;28;20060;-77
2021/07/27 04:59:42;;;;;;;14.95;5.10;;;;;;;14.82;100.00;99113.09;5033343;28;20394;-78
2021/07/27 05:02:46;;;;;;;13.90;4.53;;;;;;;14.81;100.00;99095.50;5033357;28;20052;-78
2021/07/27 05:05:52;;;;;;;20.65;4.43;;;;;;;14.81;100.00;99100.38;5032820;28;20056;-77
2021/07/27 05:08:56;;;;;;;16.70;5.68;;;;;;;14.87;100.00;99098.28;5033388;28;20068;-77
2021/07/27 05:11:59;;;;;;;23.58;5.95;;;;;;;14.87;100.00;99082.22;5032533;28;20048;-77
2021/07/27 05:15:04;;;;;;;19.85;5.43;;;;;;;14.92;100.00;99075.06;5044475;28;20052;-77
2021/07/27 05:18:08;;;;;;;18.10;4.22;;;;;;;14.96;100.00;99083.94;5052548;28;20056;-78
2021/07/27 05:21:11;;;;;;;20.27;4.68;;;;;;;14.96;100.00;99087.50;5053118;28;20052;-78
2021/07/27 05:24:14;;;;;;;26.13;5.18;;;;;;;14.94;100.00;99076.03;5052326;28;20048;-78
2021/07/27 05:27:17;;;;;;;20.42;4.32;;;;;;;15.00;100.00;99079.56;5060179;28;20056;-77
2021/07/27 05:30:24;;;;;;;13.25;4.07;;;;;;;15.08;100.00;99074.13;5052333;28;20060;-80
2021/07/27 05:33:28;;;;;;;14.02;3.00;;;;;;;15.13;100.00;99074.06;5036121;28;20060;-77
2021/07/27 05:36:32;;;;;;;13.45;4.00;;;;;;;15.16;100.00;99066.63;5031497;28;20064;-78
2021/07/27 05:39:35;;;;;;;20.35;4.28;;;;;;;15.19;100.00;99063.56;5034622;28;20071;-77
2021/07/27 05:42:39;;;;;;;12.48;3.10;;;;;;;15.20;100.00;99076.28;5040025;28;21462;-77
2021/07/27 05:45:42;;;;;;;17.05;4.97;;;;;;;15.19;100.00;99071.97;5039836;28;20052;-77
2021/07/27 05:48:46;;;;;;;14.02;3.22;;;;;;;15.18;100.00;99070.44;5034874;28;20056;-78
2021/07/27 05:51:50;;;;;;;13.00;3.95;;;;;;;15.22;100.00;99067.34;5032449;28;20056;-78
2021/07/27 05:54:54;;;;;;;12.05;3.67;;;;;;;15.27;100.00;99071.38;5031858;28;20057;-78
2021/07/27 05:57:57;;;;;;;24.88;4.15;;;;;;;15.25;100.00;99068.31;5042111;28;20120;-78
2021/07/27 06:01:01;;;;;;;16.10;4.22;;;;;;;15.29;100.00;99066.00;5032370;28;20056;-78
2021/07/27 06:04:04;;;;;;;15.48;4.05;;;;;;;15.26;100.00;99064.25;5032252;28;20405;-78
2021/07/27 06:07:08;;;;;;;13.07;2.97;;;;;;;15.19;100.00;99063.56;5042789;28;20060;-78
2021/07/27 06:10:11;;;;;;;16.50;4.32;;;;;;;15.20;100.00;99070.66;5032421;28;20072;-78
2021/07/27 06:13:15;;;;;;;10.45;3.97;;;;;;;15.19;100.00;99065.59;5032249;28;20072;-78
2021/07/27 06:16:18;;;;;;;14.00;3.90;;;;;;;15.20;100.00;99061.50;5031403;28;20121;-79
2021/07/27 06:19:23;;;;;;;9.93;3.28;;;;;;;15.20;100.00;99067.84;5048959;28;20111;-78
2021/07/27 06:22:26;;;;;;;16.92;4.68;;;;;;;15.24;100.00;99069.63;5051715;28;20052;-76
2021/07/27 06:25:30;;;;;;;19.92;4.63;;;;;;;15.25;100.00;99071.88;5051708;28;20497;-76
2021/07/27 06:28:33;;;;;;;19.20;5.13;;;;;;;15.27;100.00;99074.94;5051832;28;20513;-76
2021/07/27 06:31:37;;;;;;;13.35;3.85;;;;;;;15.29;100.00;99080.03;5055098;28;20056;-76
2021/07/27 06:34:40;;;;;;;16.77;4.60;;;;;;;15.29;100.00;99080.78;5057695;28;20056;-77
2021/07/27 06:37:44;;;;;;;9.68;3.67;;;;;;;15.30;100.00;99075.94;5057373;28;20413;-78
2021/07/27 06:40:47;;;;;;;20.20;4.53;;;;;;;15.33;100.00;99091.72;5057937;28;20059;-75
2021/07/27 06:43:50;;;;;;;17.63;4.47;;;;;;;15.39;100.00;99081.94;5058803;28;20063;-76
2021/07/27 06:46:54;;;;;;;19.73;4.35;;;;;;;15.45;100.00;99079.88;5057431;28;20052;-75
2021/07/27 06:49:57;;;;;;;18.38;3.55;;;;;;;15.55;100.00;99080.28;5051219;28;20048;-75
2021/07/27 06:53:02;;;;;;;13.02;4.80;;;;;;;15.58;100.00;99079.19;5051019;28;20055;-76
2021/07/27 06:56:06;;;;;;;16.90;2.92;;;;;;;15.59;100.00;99095.50;5051016;28;20413;-76
2021/07/27 06:59:10;;;;;;;17.08;3.58;;;;;;;15.64;100.00;99085.50;5051452;28;20397;-76
2021/07/27 07:02:14;;;;;;;16.00;4.28;;;;;;;15.70;100.00;99094.63;5052448;28;20043;-76
2021/07/27 07:05:17;;;;;;;20.67;5.15;;;;;;;15.66;100.00;99099.75;5051286;28;20075;-76
2021/07/27 07:08:22;;;;;;;8.27;2.65;;;;;;;15.63;100.00;99100.84;5050970;28;20056;-76
2021/07/27 07:11:27;;;;;;;13.35;3.47;;;;;;;15.69;100.00;99104.34;5050145;28;20051;-79
2021/07/27 07:14:31;;;;;;;26.67;3.70;;;;;;;15.74;100.00;99107.06;5050353;28;20052;-78
2021/07/27 07:17:34;;;;;;;16.05;4.35;;;;;;;15.79;100.00;99099.84;5050667;28;20414;-78
2021/07/27 07:20:37;;;;;;;9.82;3.15;;;;;;;15.82;100.00;99104.44;5049014;28;21160;-78
2021/07/27 07:23:41;;;;;;;6.32;2.80;;;;;;;15.84;100.00;99110.28;5050089;28;20484;-77
2021/07/27 07:26:46;;;;;;;8.95;2.95;;;;;;;15.85;100.00;99109.72;5051207;28;20060;-77
2021/07/27 07:29:53;;;;;;;12.90;4.18;;;;;;;15.86;100.00;99118.91;5058530;28;20064;-76
2021/07/27 07:32:57;;;;;;;15.45;3.85;;;;;;;15.83;100.00;99120.00;5055722;28;20056;-76
2021/07/27 07:36:13;;;;;;;17.02;3.92;;;;;;;15.80;100.00;99109.81;5055313;28;20067;-76
2021/07/27 07:39:17;;;;;;;15.82;2.97;;;;;;;15.85;100.00;99117.41;5053796;28;20052;-76
2021/07/27 07:42:21;;;;;;;9.07;3.92;;;;;;;15.84;100.00;99115.88;5052595;28;20512;-76
2021/07/27 07:45:25;;;;;;;13.45;4.35;;;;;;;15.85;100.00;99117.41;5044724;28;20124;-76
2021/07/27 07:48:29;;;;;;;9.48;3.42;;;;;;;15.87;100.00;99114.84;5053651;28;20052;-77
2021/07/27 07:51:34;;;;;;;11.93;4.30;;;;;;;15.87;100.00;99114.84;5045589;28;20103;-76
2021/07/27 07:54:38;;;;;;;14.60;4.32;;;;;;;15.85;100.00;99111.81;5034896;28;20060;-76
2021/07/27 07:57:42;;;;;;;13.00;3.17;;;;;;;15.88;100.00;99113.53;5034759;28;20556;-76
2021/07/27 08:00:45;;;;;;;8.20;3.28;;;;;;;15.94;100.00;99126.22;5046329;28;20057;-76
2021/07/27 08:03:48;;;;;;;25.23;4.55;;;;;;;15.89;100.00;99123.50;5034535;28;20048;-76
2021/07/27 08:06:52;;;;;;;12.93;4.03;;;;;;;15.88;100.00;99136.00;5034426;28;20409;-76
2021/07/27 08:09:56;;;;;;;17.67;4.03;;;;;;;15.90;100.00;99136.22;5034551;28;20060;-76
2021/07/27 08:12:59;;;;;;;16.67;4.45;;;;;;;15.97;100.00;99127.22;5034450;28;20052;-76
2021/07/27 08:16:10;;;;;;;16.35;3.97;;;;;;;16.03;100.00;99143.97;5034252;28;20053;-76
2021/07/27 08:19:13;;;;;;;12.07;3.65;;;;;;;16.04;100.00;99140.66;5045361;28;20497;-75
2021/07/27 08:22:17;;;;;;;7.80;3.15;;;;;;;16.07;100.00;99145.19;5034266;28;20053;-76
2021/07/27 08:25:22;;;;;;;11.18;3.80;;;;;;;16.09;100.00;99133.44;5034233;28;20056;-76
2021/07/27 08:28:26;;;;;;;14.57;4.57;;;;;;;16.11;100.00;99140.06;5036080;28;20064;-78
2021/07/27 08:31:30;;;;;;;19.45;4.95;;;;;;;16.15;100.00;99132.09;5039484;28;20060;-78
2021/07/27 08:34:37;;;;;;;9.75;2.85;;;;;;;16.24;100.00;99126.06;5053679;28;20504;-78
2021/07/27 08:37:41;;;;;;;10.25;3.88;;;;;;;16.30;100.00;99121.16;5053553;28;20052;-78
2021/07/27 08:40:48;;;;;;;16.50;3.80;;;;;;;16.37;100.00;99122.59;5053084;28;20098;-75
2021/07/27 08:43:52;;;;;;;10.43;2.92;;;;;;;16.45;100.00;99124.25;5053093;28;20060;-75
2021/07/27 08:46:56;;;;;;;14.07;4.43;;;;;;;16.58;100.00;99120.75;5053309;28;20409;-78
2021/07/27 08:50:00;;;;;;;18.67;4.57;;;;;;;16.66;100.00;99116.78;5053760;28;20056;-78
2021/07/27 08:53:04;;;;;;;7.07;2.28;;;;;;;16.79;100.00;99110.44;5053637;28;20059;-76
2021/07/27 08:56:07;;;;;;;13.20;4.03;;;;;;;16.94;100.00;99118.38;5053439;28;20056;-76
2021/07/27 08:59:11;;;;;;;13.15;4.30;;;;;;;17.14;100.00;99114.97;5053605;28;20075;-77
2021/07/27 09:02:26;;;;;;;11.95;3.95;;;;;;;17.36;100.00;99114.56;5053401;28;20505;-75
2021/07/27 09:05:29;;;;;;;11.75;3.67;;;;;;;17.59;100.00;99110.03;5052953;28;20063;-75
2021/07/27 09:08:33;;;;;;;15.57;3.88;;;;;;;17.93;100.00;99108.06;5052973;28;20056;-75
2021/07/27 09:11:45;;;;;;;7.85;2.15;;;;;;;18.16;100.00;99111.94;5052614;28;21449;-72
2021/07/27 09:14:50;;;;;;;7.20;1.95;;;;;;;18.42;100.00;99099.03;5053164;28;20056;-73
2021/07/27 09:17:57;;;;;;;12.13;4.32;;;;;;;18.58;100.00;99103.56;5053045;28;20386;-72
2021/07/27 09:21:02;;;;;;;8.50;2.72;;;;;;;18.71;100.00;99101.44;5053269;28;20195;-73
2021/07/27 09:24:05;;;;;;;11.90;2.65;;;;;;;18.85;100.00;99100.06;5053135;28;20052;-72
2021/07/27 09:27:09;;;;;;;11.98;4.30;;;;;;;19.06;100.00;99097.22;5052864;28;20059;-72
2021/07/27 09:30:22;;;;;;;9.88;3.00;;;;;;;19.26;100.00;99092.84;5053038;28;20059;-73
2021/07/27 09:33:29;;;;;;;11.57;2.92;;;;;;;19.34;100.00;99085.97;5055677;28;20072;-73
2021/07/27 09:36:34;;;;;;;9.68;2.53;;;;;;;19.30;100.00;99088.38;5052894;28;20102;-72
2021/07/27 09:39:37;;;;;;;9.38;2.80;;;;;;;19.39;100.00;99093.56;5052942;28;20076;-72
2021/07/27 09:42:41;;;;;;;7.32;1.95;;;;;;;19.54;100.00;99087.22;5052362;28;20056;-71
2021/07/27 09:45:52;;;;;;;17.73;3.80;;;;;;;19.81;100.00;99082.09;5052659;28;20147;-71
2021/07/27 09:48:57;;;;;;;12.68;2.80;;;;;;;19.91;100.00;99083.09;5052594;28;20055;-72
2021/07/27 09:52:00;;;;;;;8.38;2.33;;;;;;;19.87;100.00;99085.53;5050699;28;20406;-73
2021/07/27 09:55:05;;;;;;;10.05;2.78;;;;;;;19.93;100.00;99077.63;5052689;28;20055;-74
2021/07/27 09:58:09;;;;;;;11.00;3.75;;;;;;;19.87;100.00;99082.69;5052382;28;20060;-73
2021/07/27 10:01:21;;;;;;;11.43;3.63;;;;;;;19.89;100.00;99080.81;5052570;28;20111;-73
2021/07/27 10:04:29;;;;;;;8.30;3.72;;;;;;;19.93;100.00;99083.28;5051751;28;20067;-73
2021/07/27 10:07:32;;;;;;;10.32;2.25;;;;;;;19.98;100.00;99079.53;5051931;28;20064;-73
2021/07/27 10:10:43;;;;;;;15.85;2.78;;;;;;;20.14;100.00;99075.47;5051933;28;20072;-73
2021/07/27 10:13:49;;;;;;;19.38;3.63;;;;;;;20.07;100.00;99087.50;5052190;28;20047;-73
2021/07/27 10:17:01;;;;;;;11.02;4.18;;;;;;;19.99;100.00;99078.25;5052173;28;20405;-72
2021/07/27 10:20:05;;;;;;;17.65;2.63;;;;;;;19.90;100.00;99073.13;5032067;28;20044;-74
2021/07/27 10:23:16;;;;;;;13.60;4.35;;;;;;;19.89;100.00;99066.69;5031725;28;20056;-74
2021/07/27 10:26:28;;;;;;;10.38;3.17;;;;;;;20.00;100.00;99077.66;5031543;28;20052;-74
2021/07/27 10:29:31;;;;;;;9.95;4.40;;;;;;;20.13;100.00;99066.22;5031527;28;20498;-74
2021/07/27 10:32:35;;;;;;;11.73;3.45;;;;;;;20.45;100.00;99074.25;5031518;28;20060;-74
2021/07/27 10:35:38;;;;;;;13.65;4.47;;;;;;;20.67;100.00;99065.03;5031573;28;20418;-76
2021/07/27 10:38:43;;;;;;;9.13;2.95;;;;;;;20.84;100.00;99067.31;5031586;28;20060;-73
2021/07/27 10:41:52;;;;;;;11.93;3.72;;;;;;;20.87;100.00;99055.63;5031689;28;20052;-72
2021/07/27 10:44:55;;;;;;;12.35;3.65;;;;;;;20.77;100.00;99063.16;5031693;28;20064;-73
2021/07/27 10:47:59;;;;;;;6.80;2.30;;;;;;;20.82;100.00;99064.28;5031627;28;20053;-72
2021/07/27 10:51:02;;;;;;;13.68;3.00;;;;;;;21.04;100.00;99055.06;5031749;28;20406;-72
2021/07/27 10:54:06;;;;;;;13.25;3.75;;;;;;;21.24;100.00;99054.13;5031487;28;20466;-73
2021/07/27 10:57:11;;;;;;;9.30;3.28;;;;;;;21.55;100.00;99051.97;5031282;28;20052;-73
2021/07/27 11:00:15;;;;;;;13.85;4.60;;;;;;;21.41;100.00;99053.50;5031557;28;20056;-73
2021/07/27 11:03:28;;;;;;;17.02;4.65;;;;;;;21.35;100.00;99045.22;5030853;28;20593;-75
2021/07/27 11:06:32;;;;;;;17.83;4.30;;;;;;;21.50;100.00;99047.25;5030971;28;20056;-75
2021/07/27 11:09:52;;;;;;;14.15;4.07;;;;;;;21.72;100.00;99052.84;5031142;28;20053;-76
2021/07/27 11:12:58;;;;;;;10.98;4.05;;;;;;;21.94;100.00;99039.94;5031142;28;20056;-75
2021/07/27 11:16:03;;;;;;;19.30;3.30;;;;;;;22.02;100.00;99046.34;5031495;28;20046;-74
2021/07/27 11:19:09;;;;;;;17.95;4.70;;;;;;;22.15;100.00;99036.81;5049626;28;20047;-76
2021/07/27 11:22:15;;;;;;;14.15;3.88;;;;;;;22.20;100.00;99028.09;5031491;28;20049;-77
2021/07/27 11:25:20;;;;;;;18.35;5.22;;;;;;;22.25;100.00;99029.94;5031266;28;20533;-77
2021/07/27 11:28:37;;;;;;;11.30;4.38;;;;;;;22.50;100.00;99025.03;5030716;28;20065;-77
2021/07/27 11:31:47;;;;;;;15.02;4.05;;;;;;;22.54;100.00;99016.16;5029928;28;20061;-75
2021/07/27 11:34:56;;;;;;;7.28;3.03;;;;;;;22.49;100.00;99017.88;5034132;28;20064;-76
2021/07/27 11:38:04;;;;;;;8.07;2.80;;;;;;;22.48;100.00;99022.03;5030771;28;20076;-76
2021/07/27 11:41:11;;;;;;;18.48;6.13;;;;;;;22.49;100.00;99015.03;5031203;28;20053;-77
2021/07/27 11:44:23;;;;;;;13.40;5.60;;;;;;;22.58;100.00;99016.50;5031191;28;20048;-77
2021/07/27 11:47:40;;;;;;;11.93;3.40;;;;;;;22.54;100.00;99005.53;5032509;28;20060;-77
2021/07/27 11:50:43;;;;;;;12.00;3.95;;;;;;;22.63;100.00;99000.59;5035284;28;20053;-77
2021/07/27 11:53:54;;;;;;;14.40;3.97;;;;;;;22.85;100.00;99008.91;5036823;28;20048;-77
2021/07/27 11:57:00;;;;;;;13.50;4.57;;;;;;;22.89;100.00;99008.50;5036570;28;20052;-78
2021/07/27 12:00:11;;;;;;;9.70;4.13;;;;;;;22.91;100.00;99005.84;5036198;28;20057;-77
2021/07/27 12:03:15;;;;;;;11.63;4.30;;;;;;;22.92;100.00;98990.28;5037293;28;20060;-77
2021/07/27 12:06:18;;;;;;;8.48;3.78;;;;;;;22.95;100.00;98991.97;5035019;28;20419;-74
2021/07/27 12:09:22;;;;;;;7.72;3.65;;;;;;;23.11;100.00;98987.63;5030129;28;20441;-77
2021/07/27 12:12:26;;;;;;;14.23;4.40;;;;;;;23.20;100.00;98981.31;5029532;28;20056;-76
2021/07/27 12:15:31;;;;;;;13.48;4.30;;;;;;;23.15;100.00;98985.91;5031467;28;20076;-76
2021/07/27 12:18:35;;;;;;;8.93;3.92;;;;;;;22.91;100.00;98977.44;5052908;28;20064;-76
2021/07/27 12:21:38;;;;;;;11.50;3.95;;;;;;;22.66;100.00;98982.38;5034144;28;20551;-77
2021/07/27 12:24:42;;;;;;;12.57;4.18;;;;;;;22.49;100.00;98972.47;5033827;28;20103;-76
2021/07/27 12:27:45;;;;;;;8.38;3.40;;;;;;;22.51;100.00;98966.97;5040352;28;20052;-77
2021/07/27 12:30:49;;;;;;;13.98;3.63;;;;;;;22.65;100.00;98964.63;5042717;28;20056;-77
2021/07/27 12:33:52;;;;;;;12.40;4.03;;;;;;;22.72;100.00;98966.63;5053813;28;20068;-75
2021/07/27 12:36:55;;;;;;;13.52;4.22;;;;;;;22.82;100.00;98961.06;5053903;28;20078;-75
2021/07/27 12:39:59;;;;;;;12.70;3.50;;;;;;;22.85;100.00;98954.22;5054326;28;20056;-75
2021/07/27 12:43:04;;;;;;;13.35;5.25;;;;;;;22.97;100.00;98958.06;5053155;28;20056;-76
2021/07/27 12:46:08;;;;;;;12.90;4.35;;;;;;;23.00;100.00;98954.06;5053678;28;20500;-75
2021/07/27 12:49:16;;;;;;;9.20;3.30;;;;;;;22.93;100.00;98947.13;5053639;28;20056;-76
2021/07/27 12:52:19;;;;;;;14.18;4.63;;;;;;;22.76;100.00;98952.03;5053507;28;20417;-75
2021/07/27 12:55:23;;;;;;;12.20;4.00;;;;;;;22.58;100.00;98957.66;5053335;28;20059;-75
2021/07/27 12:58:26;;;;;;;11.77;3.75;;;;;;;22.51;100.00;98943.50;5053002;28;20055;-75
2021/07/27 13:01:30;;;;;;;12.13;4.28;;;;;;;22.39;100.00;98942.50;5053130;28;20043;-75
2021/07/27 13:04:33;;;;;;;15.65;4.95;;;;;;;22.20;100.00;98940.16;5052806;28;20056;-76
2021/07/27 13:07:37;;;;;;;17.67;4.85;;;;;;;21.88;100.00;98937.34;5052938;28;21759;-76
2021/07/27 13:10:40;;;;;;;14.77;3.75;;;;;;;21.45;100.00;98943.38;5052940;28;20056;-76
2021/07/27 13:13:44;;;;;;;17.30;4.53;;;;;;;21.06;100.00;98948.44;5053252;28;20052;-77
2021/07/27 13:16:47;;;;;;;13.98;4.03;;;;;;;20.80;100.00;98948.06;5053122;28;20450;-77
2021/07/27 13:19:51;;;;;;;16.30;3.42;;;;;;;20.60;100.00;98952.63;5033375;28;20052;-76
2021/07/27 13:22:54;;;;;;;13.27;3.17;;;;;;;20.41;100.00;98952.25;5033132;28;20057;-76
2021/07/27 13:25:57;;;;;;;12.57;3.47;;;;;;;20.11;100.00;98952.19;5032927;28;20056;-77
2021/07/27 13:29:01;;;;;;;11.10;3.75;;;;;;;19.79;100.00;98949.88;5033400;28;20044;-76
2021/07/27 13:32:06;;;;;;;9.75;3.08;;;;;;;19.50;100.00;98960.50;5035569;28;20116;-76
2021/07/27 13:35:09;;;;;;;14.05;4.15;;;;;;;19.22;100.00;98969.00;5035823;28;20056;-76
2021/07/27 13:38:13;;;;;;;13.57;4.38;;;;;;;18.99;100.00;98976.59;5034590;28;20156;-76
2021/07/27 13:41:16;;;;;;;8.05;2.65;;;;;;;18.78;100.00;98976.63;5032995;28;20060;-78
2021/07/27 13:44:19;;;;;;;8.25;3.10;;;;;;;18.54;100.00;98976.22;5047118;28;20524;-80
2021/07/27 13:47:23;;;;;;;9.10;3.53;;;;;;;18.37;100.00;98984.34;5051837;28;20064;-83
2021/07/27 13:50:27;;;;;;;11.07;3.35;;;;;;;18.27;100.00;98984.06;5048953;28;20534;-81
2021/07/27 13:53:30;;;;;;;11.35;3.78;;;;;;;18.12;100.00;98987.50;5052685;28;20398;-79
2021/07/27 13:56:33;;;;;;;7.97;1.70;;;;;;;18.00;100.00;98997.50;5052593;28;20414;-82
2021/07/27 14:00:27;;;;;;;3.53;1.45;;;;;;;18.02;100.00;98994.91;5262391;22;20031;-80
2021/07/27 14:03:32;;;;;;;3.67;0.88;;;;;;;18.15;100.00;98986.41;4969610;28;20050;-81
2021/07/27 14:06:35;;;;;;;9.93;2.13;;;;;;;18.45;100.00;98985.22;4993500;28;20058;-83
2021/07/27 14:09:44;;;;;;;7.50;1.65;;;;;;;18.88;100.00;98993.81;4977416;28;20430;-84
2021/07/27 14:12:47;;;;;;;3.50;1.55;;;;;;;19.14;100.00;98990.03;4964460;28;20058;-83
2021/07/27 14:16:00;;;;;;;4.53;2.30;;;;;;;19.34;100.00;98989.97;4973389;28;20394;-81
2021/07/27 14:19:03;;;;;;;3.28;1.65;;;;;;;19.63;100.00;98988.63;4972460;28;20061;-81
2021/07/27 14:22:13;;;;;;;13.88;2.33;;;;;;;19.83;100.00;98994.72;4972412;28;20054;-79
2021/07/27 14:25:30;;;;;;;;;;;;;;;;;;;;;
2021/07/27 14:28:35;;;;;;;3.53;1.67;;;;;;;19.75;100.00;98996.75;4973603;28;20057;-81
2021/07/27 14:31:39;;;;;;;7.47;1.63;;;;;;;19.53;100.00;98990.44;4972330;28;20430;-83
2021/07/27 14:34:42;;;;;;;3.67;1.27;;;;;;;19.45;100.00;99000.94;4972771;28;20058;-81
2021/07/27 14:37:47;;;;;;;9.18;1.35;;;;;;;19.37;100.00;98994.53;4972976;28;20049;-83
2021/07/27 14:40:50;;;;;;;5.10;1.27;;;;;;;19.44;100.00;98981.75;4974006;28;20058;-86